sensor_id;sensor_type;location;lat;lon;timestamp;P1;durP1;ratioP1;P2;durP2;ratioP2
13345;SDS011;6742;48.036;15.780;2023-09-18T00:01:34;4.97;;;4.20;;
13345;SDS011;6742;48.036;15.780;2023-09-18T00:04:01;4.57;;;4.18;;
13345;SDS011;6742;48.036;15.780;2023-09-18T00:06:32;4.28;;;3.88;;
13345;SDS011;6742;48.036;15.780;2023-09-18T00:08:59;5.18;;;3.70;;
13345;SDS011;6742;48.036;15.780;2023-09-18T00:11:26;3.88;;;3.58;;
13345;SDS011;6742;48.036;15.780;2023-09-18T00:13:53;5.28;;;3.88;;
13345;SDS011;6742;48.036;15.780;2023-09-18T00:16:20;4.55;;;4.05;;
13345;SDS011;6742;48.036;15.780;2023-09-18T00:18:48;5.03;;;4.10;;
13345;SDS011;6742;48.036;15.780;2023-09-18T00:21:15;3.63;;;3.33;;
13345;SDS011;6742;48.036;15.780;2023-09-18T00:23:42;3.97;;;3.67;;
13345;SDS011;6742;48.036;15.780;2023-09-18T00:26:11;4.03;;;3.72;;
13345;SDS011;6742;48.036;15.780;2023-09-18T00:28:38;4.30;;;3.80;;
13345;SDS011;6742;48.036;15.780;2023-09-18T00:31:04;4.30;;;3.85;;
13345;SDS011;6742;48.036;15.780;2023-09-18T00:33:32;4.10;;;3.80;;
13345;SDS011;6742;48.036;15.780;2023-09-18T00:36:00;4.07;;;3.78;;
13345;SDS011;6742;48.036;15.780;2023-09-18T00:38:28;4.13;;;3.83;;
13345;SDS011;6742;48.036;15.780;2023-09-18T00:40:55;3.75;;;3.45;;
13345;SDS011;6742;48.036;15.780;2023-09-18T00:43:21;3.90;;;3.55;;
13345;SDS011;6742;48.036;15.780;2023-09-18T00:45:48;4.22;;;3.92;;
13345;SDS011;6742;48.036;15.780;2023-09-18T00:48:15;8.15;;;4.10;;
13345;SDS011;6742;48.036;15.780;2023-09-18T00:50:44;4.28;;;3.83;;
13345;SDS011;6742;48.036;15.780;2023-09-18T00:53:13;4.47;;;4.10;;
13345;SDS011;6742;48.036;15.780;2023-09-18T00:55:42;4.05;;;3.70;;
13345;SDS011;6742;48.036;15.780;2023-09-18T00:58:09;3.92;;;3.60;;
13345;SDS011;6742;48.036;15.780;2023-09-18T01:00:36;4.30;;;4.00;;
13345;SDS011;6742;48.036;15.780;2023-09-18T01:03:03;5.13;;;3.70;;
13345;SDS011;6742;48.036;15.780;2023-09-18T01:05:33;3.90;;;3.60;;
13345;SDS011;6742;48.036;15.780;2023-09-18T01:08:01;4.45;;;3.88;;
13345;SDS011;6742;48.036;15.780;2023-09-18T01:10:38;4.43;;;4.03;;
13345;SDS011;6742;48.036;15.780;2023-09-18T01:13:14;4.38;;;3.80;;
13345;SDS011;6742;48.036;15.780;2023-09-18T01:15:47;4.30;;;3.90;;
13345;SDS011;6742;48.036;15.780;2023-09-18T01:18:18;4.82;;;3.75;;
13345;SDS011;6742;48.036;15.780;2023-09-18T01:20:45;4.00;;;3.70;;
13345;SDS011;6742;48.036;15.780;2023-09-18T01:23:13;4.32;;;4.00;;
13345;SDS011;6742;48.036;15.780;2023-09-18T01:25:40;4.10;;;3.80;;
13345;SDS011;6742;48.036;15.780;2023-09-18T01:28:07;4.30;;;4.00;;
13345;SDS011;6742;48.036;15.780;2023-09-18T01:30:34;4.07;;;3.67;;
13345;SDS011;6742;48.036;15.780;2023-09-18T01:33:03;4.82;;;3.85;;
13345;SDS011;6742;48.036;15.780;2023-09-18T01:35:30;4.18;;;3.88;;
13345;SDS011;6742;48.036;15.780;2023-09-18T01:37:59;4.65;;;4.10;;
13345;SDS011;6742;48.036;15.780;2023-09-18T01:40:29;4.40;;;4.00;;
13345;SDS011;6742;48.036;15.780;2023-09-18T01:42:58;4.38;;;3.50;;
13345;SDS011;6742;48.036;15.780;2023-09-18T01:45:25;4.68;;;3.83;;
13345;SDS011;6742;48.036;15.780;2023-09-18T01:47:52;3.92;;;3.60;;
13345;SDS011;6742;48.036;15.780;2023-09-18T01:50:19;3.85;;;3.55;;
13345;SDS011;6742;48.036;15.780;2023-09-18T01:52:46;4.05;;;3.47;;
13345;SDS011;6742;48.036;15.780;2023-09-18T01:55:12;4.22;;;3.45;;
13345;SDS011;6742;48.036;15.780;2023-09-18T01:57:41;3.47;;;3.17;;
13345;SDS011;6742;48.036;15.780;2023-09-18T02:00:08;3.97;;;3.67;;
13345;SDS011;6742;48.036;15.780;2023-09-18T02:02:37;3.92;;;3.63;;
13345;SDS011;6742;48.036;15.780;2023-09-18T02:05:04;4.10;;;3.70;;
13345;SDS011;6742;48.036;15.780;2023-09-18T02:07:32;4.05;;;3.75;;
13345;SDS011;6742;48.036;15.780;2023-09-18T02:09:59;4.15;;;3.75;;
13345;SDS011;6742;48.036;15.780;2023-09-18T02:12:26;4.10;;;3.80;;
13345;SDS011;6742;48.036;15.780;2023-09-18T02:14:54;4.00;;;3.70;;
13345;SDS011;6742;48.036;15.780;2023-09-18T02:17:22;4.07;;;3.58;;
13345;SDS011;6742;48.036;15.780;2023-09-18T02:19:49;4.95;;;3.50;;
13345;SDS011;6742;48.036;15.780;2023-09-18T02:22:16;4.40;;;4.07;;
13345;SDS011;6742;48.036;15.780;2023-09-18T02:24:43;3.88;;;3.55;;
13345;SDS011;6742;48.036;15.780;2023-09-18T02:27:10;4.03;;;3.63;;
13345;SDS011;6742;48.036;15.780;2023-09-18T02:29:37;3.97;;;3.67;;
13345;SDS011;6742;48.036;15.780;2023-09-18T02:32:05;4.40;;;3.83;;
13345;SDS011;6742;48.036;15.780;2023-09-18T02:34:32;4.22;;;3.90;;
13345;SDS011;6742;48.036;15.780;2023-09-18T02:36:59;3.80;;;3.50;;
13345;SDS011;6742;48.036;15.780;2023-09-18T02:39:26;4.30;;;3.90;;
13345;SDS011;6742;48.036;15.780;2023-09-18T02:41:53;4.50;;;4.18;;
13345;SDS011;6742;48.036;15.780;2023-09-18T02:44:21;4.20;;;3.90;;
13345;SDS011;6742;48.036;15.780;2023-09-18T02:46:48;4.25;;;3.95;;
13345;SDS011;6742;48.036;15.780;2023-09-18T02:49:16;4.13;;;3.60;;
13345;SDS011;6742;48.036;15.780;2023-09-18T02:51:43;4.32;;;3.92;;
13345;SDS011;6742;48.036;15.780;2023-09-18T02:54:10;3.92;;;3.58;;
13345;SDS011;6742;48.036;15.780;2023-09-18T02:56:37;4.18;;;3.78;;
13345;SDS011;6742;48.036;15.780;2023-09-18T02:59:04;4.85;;;3.80;;
13345;SDS011;6742;48.036;15.780;2023-09-18T03:01:31;4.43;;;4.03;;
13345;SDS011;6742;48.036;15.780;2023-09-18T03:03:58;4.43;;;3.90;;
13345;SDS011;6742;48.036;15.780;2023-09-18T03:06:26;4.40;;;4.00;;
13345;SDS011;6742;48.036;15.780;2023-09-18T03:08:53;4.75;;;4.35;;
13345;SDS011;6742;48.036;15.780;2023-09-18T03:11:20;4.95;;;4.22;;
13345;SDS011;6742;48.036;15.780;2023-09-18T03:13:47;4.57;;;4.18;;
13345;SDS011;6742;48.036;15.780;2023-09-18T03:16:14;4.25;;;3.85;;
13345;SDS011;6742;48.036;15.780;2023-09-18T03:18:41;4.50;;;4.20;;
13345;SDS011;6742;48.036;15.780;2023-09-18T03:21:08;4.65;;;4.22;;
13345;SDS011;6742;48.036;15.780;2023-09-18T03:23:37;4.57;;;4.18;;
13345;SDS011;6742;48.036;15.780;2023-09-18T03:26:04;5.05;;;4.55;;
13345;SDS011;6742;48.036;15.780;2023-09-18T03:28:30;4.50;;;4.10;;
13345;SDS011;6742;48.036;15.780;2023-09-18T03:30:57;4.43;;;4.07;;
13345;SDS011;6742;48.036;15.780;2023-09-18T03:33:24;4.72;;;4.25;;
13345;SDS011;6742;48.036;15.780;2023-09-18T03:35:52;4.40;;;4.00;;
13345;SDS011;6742;48.036;15.780;2023-09-18T03:38:23;4.10;;;3.70;;
13345;SDS011;6742;48.036;15.780;2023-09-18T03:40:51;4.30;;;3.90;;
13345;SDS011;6742;48.036;15.780;2023-09-18T03:43:18;4.63;;;3.83;;
13345;SDS011;6742;48.036;15.780;2023-09-18T03:45:45;4.18;;;3.88;;
13345;SDS011;6742;48.036;15.780;2023-09-18T03:48:12;4.03;;;3.72;;
13345;SDS011;6742;48.036;15.780;2023-09-18T03:50:39;3.83;;;3.40;;
13345;SDS011;6742;48.036;15.780;2023-09-18T03:53:06;4.35;;;3.80;;
13345;SDS011;6742;48.036;15.780;2023-09-18T03:55:32;4.22;;;3.45;;
13345;SDS011;6742;48.036;15.780;2023-09-18T03:58:01;4.53;;;4.00;;
13345;SDS011;6742;48.036;15.780;2023-09-18T04:00:29;4.20;;;3.78;;
13345;SDS011;6742;48.036;15.780;2023-09-18T04:02:56;4.20;;;3.90;;
13345;SDS011;6742;48.036;15.780;2023-09-18T04:05:23;4.47;;;3.55;;
13345;SDS011;6742;48.036;15.780;2023-09-18T04:07:50;4.40;;;4.00;;
13345;SDS011;6742;48.036;15.780;2023-09-18T04:10:17;4.90;;;4.18;;
13345;SDS011;6742;48.036;15.780;2023-09-18T04:12:47;4.22;;;3.92;;
13345;SDS011;6742;48.036;15.780;2023-09-18T04:15:17;4.20;;;3.50;;
13345;SDS011;6742;48.036;15.780;2023-09-18T04:17:44;4.07;;;3.78;;
13345;SDS011;6742;48.036;15.780;2023-09-18T04:20:11;4.10;;;3.80;;
13345;SDS011;6742;48.036;15.780;2023-09-18T04:22:42;4.68;;;4.25;;
13345;SDS011;6742;48.036;15.780;2023-09-18T04:25:10;5.03;;;4.53;;
13345;SDS011;6742;48.036;15.780;2023-09-18T04:27:37;4.28;;;3.97;;
13345;SDS011;6742;48.036;15.780;2023-09-18T04:30:05;3.72;;;3.42;;
13345;SDS011;6742;48.036;15.780;2023-09-18T04:32:35;3.70;;;3.40;;
13345;SDS011;6742;48.036;15.780;2023-09-18T04:35:02;4.00;;;3.60;;
13345;SDS011;6742;48.036;15.780;2023-09-18T04:37:31;4.00;;;3.60;;
13345;SDS011;6742;48.036;15.780;2023-09-18T04:40:02;3.60;;;3.30;;
13345;SDS011;6742;48.036;15.780;2023-09-18T04:42:30;3.80;;;3.40;;
13345;SDS011;6742;48.036;15.780;2023-09-18T04:44:57;4.78;;;3.50;;
13345;SDS011;6742;48.036;15.780;2023-09-18T04:47:24;3.17;;;2.97;;
13345;SDS011;6742;48.036;15.780;2023-09-18T04:49:52;3.33;;;3.03;;
13345;SDS011;6742;48.036;15.780;2023-09-18T04:52:19;4.20;;;3.15;;
13345;SDS011;6742;48.036;15.780;2023-09-18T04:54:46;3.42;;;3.10;;
13345;SDS011;6742;48.036;15.780;2023-09-18T04:57:15;3.10;;;2.90;;
13345;SDS011;6742;48.036;15.780;2023-09-18T04:59:42;3.25;;;3.03;;
13345;SDS011;6742;48.036;15.780;2023-09-18T05:02:09;3.17;;;2.90;;
13345;SDS011;6742;48.036;15.780;2023-09-18T05:04:36;3.20;;;2.90;;
13345;SDS011;6742;48.036;15.780;2023-09-18T05:07:04;3.70;;;3.40;;
13345;SDS011;6742;48.036;15.780;2023-09-18T05:09:31;3.03;;;2.83;;
13345;SDS011;6742;48.036;15.780;2023-09-18T05:11:59;2.92;;;2.72;;
13345;SDS011;6742;48.036;15.780;2023-09-18T05:14:27;3.10;;;2.80;;
13345;SDS011;6742;48.036;15.780;2023-09-18T05:16:54;3.47;;;3.00;;
13345;SDS011;6742;48.036;15.780;2023-09-18T05:19:21;3.47;;;3.17;;
13345;SDS011;6742;48.036;15.780;2023-09-18T05:21:48;3.63;;;3.33;;
13345;SDS011;6742;48.036;15.780;2023-09-18T05:24:16;3.50;;;3.20;;
13345;SDS011;6742;48.036;15.780;2023-09-18T05:26:51;4.93;;;3.20;;
13345;SDS011;6742;48.036;15.780;2023-09-18T05:29:18;3.78;;;3.20;;
13345;SDS011;6742;48.036;15.780;2023-09-18T05:31:45;3.53;;;3.22;;
13345;SDS011;6742;48.036;15.780;2023-09-18T05:34:12;4.60;;;3.00;;
13345;SDS011;6742;48.036;15.780;2023-09-18T05:36:39;3.28;;;3.05;;
13345;SDS011;6742;48.036;15.780;2023-09-18T05:39:06;3.38;;;3.08;;
13345;SDS011;6742;48.036;15.780;2023-09-18T05:41:36;3.55;;;2.80;;
13345;SDS011;6742;48.036;15.780;2023-09-18T05:44:03;3.25;;;2.95;;
13345;SDS011;6742;48.036;15.780;2023-09-18T05:46:33;3.83;;;3.40;;
13345;SDS011;6742;48.036;15.780;2023-09-18T05:49:00;5.00;;;3.38;;
13345;SDS011;6742;48.036;15.780;2023-09-18T05:51:27;3.50;;;3.20;;
13345;SDS011;6742;48.036;15.780;2023-09-18T05:53:54;3.20;;;2.80;;
13345;SDS011;6742;48.036;15.780;2023-09-18T05:56:21;3.30;;;3.00;;
13345;SDS011;6742;48.036;15.780;2023-09-18T05:58:50;3.40;;;2.70;;
13345;SDS011;6742;48.036;15.780;2023-09-18T06:01:18;3.33;;;2.72;;
13345;SDS011;6742;48.036;15.780;2023-09-18T06:03:45;4.18;;;3.60;;
13345;SDS011;6742;48.036;15.780;2023-09-18T06:06:12;3.33;;;2.88;;
13345;SDS011;6742;48.036;15.780;2023-09-18T06:08:39;3.13;;;2.50;;
13345;SDS011;6742;48.036;15.780;2023-09-18T06:11:06;3.70;;;3.17;;
13345;SDS011;6742;48.036;15.780;2023-09-18T06:13:33;3.10;;;2.90;;
13345;SDS011;6742;48.036;15.780;2023-09-18T06:16:02;4.07;;;3.40;;
13345;SDS011;6742;48.036;15.780;2023-09-18T06:18:33;3.90;;;3.60;;
13345;SDS011;6742;48.036;15.780;2023-09-18T06:21:03;3.95;;;3.65;;
13345;SDS011;6742;48.036;15.780;2023-09-18T06:23:30;3.90;;;3.60;;
13345;SDS011;6742;48.036;15.780;2023-09-18T06:25:57;3.95;;;3.55;;
13345;SDS011;6742;48.036;15.780;2023-09-18T06:28:24;4.10;;;3.70;;
13345;SDS011;6742;48.036;15.780;2023-09-18T06:30:51;3.85;;;3.55;;
13345;SDS011;6742;48.036;15.780;2023-09-18T06:33:20;5.13;;;4.00;;
13345;SDS011;6742;48.036;15.780;2023-09-18T06:35:47;3.85;;;3.55;;
13345;SDS011;6742;48.036;15.780;2023-09-18T06:38:14;3.50;;;3.20;;
13345;SDS011;6742;48.036;15.780;2023-09-18T06:40:41;3.65;;;3.38;;
13345;SDS011;6742;48.036;15.780;2023-09-18T06:43:08;3.30;;;3.00;;
13345;SDS011;6742;48.036;15.780;2023-09-18T06:45:35;3.13;;;2.88;;
13345;SDS011;6742;48.036;15.780;2023-09-18T06:48:03;4.38;;;3.03;;
13345;SDS011;6742;48.036;15.780;2023-09-18T06:53:01;3.78;;;3.13;;
13345;SDS011;6742;48.036;15.780;2023-09-18T06:55:28;3.53;;;3.22;;
13345;SDS011;6742;48.036;15.780;2023-09-18T06:57:55;3.00;;;2.80;;
13345;SDS011;6742;48.036;15.780;2023-09-18T07:00:22;3.53;;;3.22;;
13345;SDS011;6742;48.036;15.780;2023-09-18T07:02:50;3.20;;;2.90;;
13345;SDS011;6742;48.036;15.780;2023-09-18T07:05:18;3.20;;;3.00;;
13345;SDS011;6742;48.036;15.780;2023-09-18T07:07:46;3.10;;;2.80;;
13345;SDS011;6742;48.036;15.780;2023-09-18T07:10:13;3.10;;;2.90;;
13345;SDS011;6742;48.036;15.780;2023-09-18T07:12:39;3.30;;;3.10;;
13345;SDS011;6742;48.036;15.780;2023-09-18T07:15:06;3.30;;;3.05;;
13345;SDS011;6742;48.036;15.780;2023-09-18T07:17:33;3.17;;;2.88;;
13345;SDS011;6742;48.036;15.780;2023-09-18T07:20:01;2.80;;;2.60;;
13345;SDS011;6742;48.036;15.780;2023-09-18T07:22:34;3.35;;;3.05;;
13345;SDS011;6742;48.036;15.780;2023-09-18T07:25:03;3.33;;;3.00;;
13345;SDS011;6742;48.036;15.780;2023-09-18T07:27:32;3.00;;;2.80;;
13345;SDS011;6742;48.036;15.780;2023-09-18T07:29:58;2.95;;;2.72;;
13345;SDS011;6742;48.036;15.780;2023-09-18T07:32:25;3.30;;;3.00;;
13345;SDS011;6742;48.036;15.780;2023-09-18T07:34:53;3.20;;;3.00;;
13345;SDS011;6742;48.036;15.780;2023-09-18T07:37:21;3.30;;;2.97;;
13345;SDS011;6742;48.036;15.780;2023-09-18T07:39:48;3.38;;;3.10;;
13345;SDS011;6742;48.036;15.780;2023-09-18T07:42:17;3.30;;;3.10;;
13345;SDS011;6742;48.036;15.780;2023-09-18T07:44:44;9.02;;;3.20;;
13345;SDS011;6742;48.036;15.780;2023-09-18T07:47:11;3.40;;;3.10;;
13345;SDS011;6742;48.036;15.780;2023-09-18T07:49:37;3.95;;;2.97;;
13345;SDS011;6742;48.036;15.780;2023-09-18T07:52:05;3.35;;;3.05;;
13345;SDS011;6742;48.036;15.780;2023-09-18T07:54:32;3.17;;;2.97;;
13345;SDS011;6742;48.036;15.780;2023-09-18T07:56:59;3.38;;;3.08;;
13345;SDS011;6742;48.036;15.780;2023-09-18T07:59:28;3.45;;;3.15;;
13345;SDS011;6742;48.036;15.780;2023-09-18T08:01:55;3.85;;;3.15;;
13345;SDS011;6742;48.036;15.780;2023-09-18T08:04:25;3.60;;;3.30;;
13345;SDS011;6742;48.036;15.780;2023-09-18T08:06:51;4.60;;;3.28;;
13345;SDS011;6742;48.036;15.780;2023-09-18T08:09:18;3.00;;;2.80;;
13345;SDS011;6742;48.036;15.780;2023-09-18T08:11:46;3.50;;;3.20;;
13345;SDS011;6742;48.036;15.780;2023-09-18T08:14:14;3.55;;;3.25;;
13345;SDS011;6742;48.036;15.780;2023-09-18T08:16:43;7.57;;;3.47;;
13345;SDS011;6742;48.036;15.780;2023-09-18T08:19:11;3.30;;;2.90;;
13345;SDS011;6742;48.036;15.780;2023-09-18T08:21:42;3.63;;;3.33;;
13345;SDS011;6742;48.036;15.780;2023-09-18T08:24:09;3.88;;;3.13;;
13345;SDS011;6742;48.036;15.780;2023-09-18T08:26:35;3.28;;;2.97;;
13345;SDS011;6742;48.036;15.780;2023-09-18T08:29:03;3.70;;;3.40;;
13345;SDS011;6742;48.036;15.780;2023-09-18T08:31:30;3.97;;;3.67;;
13345;SDS011;6742;48.036;15.780;2023-09-18T08:33:59;5.25;;;3.05;;
13345;SDS011;6742;48.036;15.780;2023-09-18T08:36:25;4.57;;;3.80;;
13345;SDS011;6742;48.036;15.780;2023-09-18T08:38:54;3.88;;;3.42;;
13345;SDS011;6742;48.036;15.780;2023-09-18T08:41:21;5.35;;;3.30;;
13345;SDS011;6742;48.036;15.780;2023-09-18T08:43:52;7.55;;;3.97;;
13345;SDS011;6742;48.036;15.780;2023-09-18T08:46:22;4.05;;;3.17;;
13345;SDS011;6742;48.036;15.780;2023-09-18T08:48:49;4.50;;;3.97;;
13345;SDS011;6742;48.036;15.780;2023-09-18T08:51:18;4.38;;;3.30;;
13345;SDS011;6742;48.036;15.780;2023-09-18T08:53:47;4.97;;;3.55;;
13345;SDS011;6742;48.036;15.780;2023-09-18T08:56:14;3.85;;;3.55;;
13345;SDS011;6742;48.036;15.780;2023-09-18T08:58:43;3.35;;;3.08;;
13345;SDS011;6742;48.036;15.780;2023-09-18T09:01:10;6.30;;;3.40;;
13345;SDS011;6742;48.036;15.780;2023-09-18T09:03:38;4.43;;;3.60;;
13345;SDS011;6742;48.036;15.780;2023-09-18T09:06:07;3.70;;;3.40;;
13345;SDS011;6742;48.036;15.780;2023-09-18T09:08:36;3.97;;;3.25;;
13345;SDS011;6742;48.036;15.780;2023-09-18T09:11:06;5.93;;;3.42;;
13345;SDS011;6742;48.036;15.780;2023-09-18T09:13:33;3.67;;;3.40;;
13345;SDS011;6742;48.036;15.780;2023-09-18T09:16:00;3.60;;;3.30;;
13345;SDS011;6742;48.036;15.780;2023-09-18T09:18:29;3.53;;;3.25;;
13345;SDS011;6742;48.036;15.780;2023-09-18T09:21:03;3.83;;;3.42;;
13345;SDS011;6742;48.036;15.780;2023-09-18T09:23:45;3.92;;;3.35;;
13345;SDS011;6742;48.036;15.780;2023-09-18T09:26:17;5.25;;;3.17;;
13345;SDS011;6742;48.036;15.780;2023-09-18T09:28:45;2.97;;;2.78;;
13345;SDS011;6742;48.036;15.780;2023-09-18T09:31:22;4.88;;;3.10;;
13345;SDS011;6742;48.036;15.780;2023-09-18T09:33:53;3.35;;;2.97;;
13345;SDS011;6742;48.036;15.780;2023-09-18T09:36:21;3.53;;;3.10;;
13345;SDS011;6742;48.036;15.780;2023-09-18T09:38:50;3.90;;;3.00;;
13345;SDS011;6742;48.036;15.780;2023-09-18T09:41:21;3.88;;;2.80;;
13345;SDS011;6742;48.036;15.780;2023-09-18T09:43:48;2.83;;;2.63;;
13345;SDS011;6742;48.036;15.780;2023-09-18T09:46:16;3.35;;;2.65;;
13345;SDS011;6742;48.036;15.780;2023-09-18T09:48:59;3.20;;;2.90;;
13345;SDS011;6742;48.036;15.780;2023-09-18T09:51:27;2.90;;;2.70;;
13345;SDS011;6742;48.036;15.780;2023-09-18T09:53:55;2.97;;;2.70;;
13345;SDS011;6742;48.036;15.780;2023-09-18T09:59:06;3.53;;;2.80;;
13345;SDS011;6742;48.036;15.780;2023-09-18T10:01:34;2.83;;;2.40;;
13345;SDS011;6742;48.036;15.780;2023-09-18T10:04:03;3.88;;;2.80;;
13345;SDS011;6742;48.036;15.780;2023-09-18T10:06:33;2.70;;;2.40;;
13345;SDS011;6742;48.036;15.780;2023-09-18T10:09:02;2.78;;;2.50;;
13345;SDS011;6742;48.036;15.780;2023-09-18T10:11:30;3.15;;;2.58;;
13345;SDS011;6742;48.036;15.780;2023-09-18T10:14:02;3.58;;;2.80;;
13345;SDS011;6742;48.036;15.780;2023-09-18T10:16:37;2.85;;;2.65;;
13345;SDS011;6742;48.036;15.780;2023-09-18T10:19:11;3.42;;;2.50;;
13345;SDS011;6742;48.036;15.780;2023-09-18T10:21:50;4.88;;;2.67;;
13345;SDS011;6742;48.036;15.780;2023-09-18T10:24:27;2.85;;;2.40;;
13345;SDS011;6742;48.036;15.780;2023-09-18T10:26:58;2.90;;;2.70;;
13345;SDS011;6742;48.036;15.780;2023-09-18T10:29:28;3.53;;;2.85;;
13345;SDS011;6742;48.036;15.780;2023-09-18T10:31:56;4.53;;;2.78;;
13345;SDS011;6742;48.036;15.780;2023-09-18T10:34:24;4.03;;;2.70;;
13345;SDS011;6742;48.036;15.780;2023-09-18T10:36:51;2.60;;;2.40;;
13345;SDS011;6742;48.036;15.780;2023-09-18T10:39:20;2.63;;;2.42;;
13345;SDS011;6742;48.036;15.780;2023-09-18T10:41:51;3.17;;;2.55;;
13345;SDS011;6742;48.036;15.780;2023-09-18T10:44:19;3.88;;;2.83;;
13345;SDS011;6742;48.036;15.780;2023-09-18T10:46:46;3.45;;;2.60;;
13345;SDS011;6742;48.036;15.780;2023-09-18T10:49:14;2.65;;;2.45;;
13345;SDS011;6742;48.036;15.780;2023-09-18T10:51:41;3.53;;;2.50;;
13345;SDS011;6742;48.036;15.780;2023-09-18T10:54:10;4.43;;;2.65;;
13345;SDS011;6742;48.036;15.780;2023-09-18T10:56:37;3.92;;;2.63;;
13345;SDS011;6742;48.036;15.780;2023-09-18T10:59:06;3.67;;;2.97;;
13345;SDS011;6742;48.036;15.780;2023-09-18T11:01:34;4.70;;;2.80;;
13345;SDS011;6742;48.036;15.780;2023-09-18T11:04:03;3.60;;;2.67;;
13345;SDS011;6742;48.036;15.780;2023-09-18T11:09:30;3.58;;;2.50;;
13345;SDS011;6742;48.036;15.780;2023-09-18T11:12:02;4.50;;;2.63;;
13345;SDS011;6742;48.036;15.780;2023-09-18T11:14:44;4.72;;;2.70;;
13345;SDS011;6742;48.036;15.780;2023-09-18T11:17:33;3.67;;;2.65;;
13345;SDS011;6742;48.036;15.780;2023-09-18T11:20:05;3.53;;;2.80;;
13345;SDS011;6742;48.036;15.780;2023-09-18T11:22:37;2.97;;;2.47;;
13345;SDS011;6742;48.036;15.780;2023-09-18T11:28:03;5.82;;;2.90;;
13345;SDS011;6742;48.036;15.780;2023-09-18T11:30:34;3.58;;;2.90;;
13345;SDS011;6742;48.036;15.780;2023-09-18T11:33:02;3.95;;;2.92;;
13345;SDS011;6742;48.036;15.780;2023-09-18T11:35:31;3.80;;;2.80;;
13345;SDS011;6742;48.036;15.780;2023-09-18T11:38:06;5.05;;;3.00;;
13345;SDS011;6742;48.036;15.780;2023-09-18T11:40:35;5.28;;;2.80;;
13345;SDS011;6742;48.036;15.780;2023-09-18T11:43:22;5.72;;;2.70;;
13345;SDS011;6742;48.036;15.780;2023-09-18T11:45:53;3.90;;;2.60;;
13345;SDS011;6742;48.036;15.780;2023-09-18T11:48:21;4.05;;;3.10;;
13345;SDS011;6742;48.036;15.780;2023-09-18T11:50:51;3.30;;;3.00;;
13345;SDS011;6742;48.036;15.780;2023-09-18T11:53:19;4.13;;;2.90;;
13345;SDS011;6742;48.036;15.780;2023-09-18T11:55:47;7.57;;;2.72;;
13345;SDS011;6742;48.036;15.780;2023-09-18T11:58:15;3.38;;;2.80;;
13345;SDS011;6742;48.036;15.780;2023-09-18T12:00:42;3.03;;;2.72;;
13345;SDS011;6742;48.036;15.780;2023-09-18T12:03:17;4.38;;;2.83;;
13345;SDS011;6742;48.036;15.780;2023-09-18T12:05:53;5.65;;;2.90;;
13345;SDS011;6742;48.036;15.780;2023-09-18T12:08:22;3.33;;;2.92;;
13345;SDS011;6742;48.036;15.780;2023-09-18T12:10:51;3.30;;;3.00;;
13345;SDS011;6742;48.036;15.780;2023-09-18T12:13:19;5.53;;;3.00;;
13345;SDS011;6742;48.036;15.780;2023-09-18T12:15:47;4.90;;;3.08;;
13345;SDS011;6742;48.036;15.780;2023-09-18T12:18:14;3.63;;;3.05;;
13345;SDS011;6742;48.036;15.780;2023-09-18T12:20:46;3.30;;;2.83;;
13345;SDS011;6742;48.036;15.780;2023-09-18T12:23:14;3.80;;;3.08;;
13345;SDS011;6742;48.036;15.780;2023-09-18T12:25:41;5.40;;;2.90;;
13345;SDS011;6742;48.036;15.780;2023-09-18T12:28:11;4.25;;;3.03;;
13345;SDS011;6742;48.036;15.780;2023-09-18T12:30:40;3.92;;;3.17;;
13345;SDS011;6742;48.036;15.780;2023-09-18T12:33:08;3.80;;;3.50;;
13345;SDS011;6742;48.036;15.780;2023-09-18T12:35:35;3.17;;;2.80;;
13345;SDS011;6742;48.036;15.780;2023-09-18T12:38:12;4.68;;;3.38;;
13345;SDS011;6742;48.036;15.780;2023-09-18T12:40:41;4.10;;;2.80;;
13345;SDS011;6742;48.036;15.780;2023-09-18T12:43:09;3.22;;;2.85;;
13345;SDS011;6742;48.036;15.780;2023-09-18T12:45:37;4.95;;;3.20;;
13345;SDS011;6742;48.036;15.780;2023-09-18T12:48:05;3.17;;;2.88;;
13345;SDS011;6742;48.036;15.780;2023-09-18T12:50:32;3.47;;;3.10;;
13345;SDS011;6742;48.036;15.780;2023-09-18T12:53:11;5.07;;;3.20;;
13345;SDS011;6742;48.036;15.780;2023-09-18T12:55:40;3.25;;;2.53;;
13345;SDS011;6742;48.036;15.780;2023-09-18T12:58:10;3.80;;;2.70;;
13345;SDS011;6742;48.036;15.780;2023-09-18T13:00:43;5.75;;;3.15;;
13345;SDS011;6742;48.036;15.780;2023-09-18T13:03:12;3.65;;;2.88;;
13345;SDS011;6742;48.036;15.780;2023-09-18T13:05:39;4.60;;;2.92;;
13345;SDS011;6742;48.036;15.780;2023-09-18T13:08:06;7.05;;;2.97;;
13345;SDS011;6742;48.036;15.780;2023-09-18T13:10:42;3.90;;;3.03;;
13345;SDS011;6742;48.036;15.780;2023-09-18T13:13:15;5.20;;;3.03;;
13345;SDS011;6742;48.036;15.780;2023-09-18T13:15:43;6.80;;;2.90;;
13345;SDS011;6742;48.036;15.780;2023-09-18T13:18:12;5.00;;;2.92;;
13345;SDS011;6742;48.036;15.780;2023-09-18T13:20:40;4.00;;;2.92;;
13345;SDS011;6742;48.036;15.780;2023-09-18T13:23:08;4.28;;;3.15;;
13345;SDS011;6742;48.036;15.780;2023-09-18T13:25:36;3.33;;;2.97;;
13345;SDS011;6742;48.036;15.780;2023-09-18T13:28:07;5.80;;;3.45;;
13345;SDS011;6742;48.036;15.780;2023-09-18T13:30:35;3.72;;;3.03;;
13345;SDS011;6742;48.036;15.780;2023-09-18T13:33:04;5.25;;;3.28;;
13345;SDS011;6742;48.036;15.780;2023-09-18T13:35:32;5.18;;;3.10;;
13345;SDS011;6742;48.036;15.780;2023-09-18T13:38:00;4.43;;;3.08;;
13345;SDS011;6742;48.036;15.780;2023-09-18T13:40:27;3.97;;;3.10;;
13345;SDS011;6742;48.036;15.780;2023-09-18T13:42:54;5.80;;;3.17;;
13345;SDS011;6742;48.036;15.780;2023-09-18T13:45:22;6.60;;;3.30;;
13345;SDS011;6742;48.036;15.780;2023-09-18T13:47:49;5.10;;;3.15;;
13345;SDS011;6742;48.036;15.780;2023-09-18T13:50:16;3.92;;;3.20;;
13345;SDS011;6742;48.036;15.780;2023-09-18T13:52:43;5.38;;;3.42;;
13345;SDS011;6742;48.036;15.780;2023-09-18T13:55:10;6.25;;;3.30;;
13345;SDS011;6742;48.036;15.780;2023-09-18T13:57:37;3.28;;;2.97;;
13345;SDS011;6742;48.036;15.780;2023-09-18T14:00:06;4.68;;;3.42;;
13345;SDS011;6742;48.036;15.780;2023-09-18T14:02:37;5.68;;;3.45;;
13345;SDS011;6742;48.036;15.780;2023-09-18T14:05:05;5.75;;;3.25;;
13345;SDS011;6742;48.036;15.780;2023-09-18T14:07:33;3.72;;;3.42;;
13345;SDS011;6742;48.036;15.780;2023-09-18T14:09:59;5.72;;;3.70;;
13345;SDS011;6742;48.036;15.780;2023-09-18T14:12:29;3.80;;;3.22;;
13345;SDS011;6742;48.036;15.780;2023-09-18T14:14:56;5.13;;;3.50;;
13345;SDS011;6742;48.036;15.780;2023-09-18T14:17:24;3.92;;;3.53;;
13345;SDS011;6742;48.036;15.780;2023-09-18T14:19:53;4.53;;;3.20;;
13345;SDS011;6742;48.036;15.780;2023-09-18T14:22:20;6.28;;;3.53;;
13345;SDS011;6742;48.036;15.780;2023-09-18T14:24:47;4.13;;;3.72;;
13345;SDS011;6742;48.036;15.780;2023-09-18T14:27:14;4.00;;;3.60;;
13345;SDS011;6742;48.036;15.780;2023-09-18T14:29:41;5.18;;;3.50;;
13345;SDS011;6742;48.036;15.780;2023-09-18T14:32:07;4.60;;;3.55;;
13345;SDS011;6742;48.036;15.780;2023-09-18T14:34:34;4.60;;;3.45;;
13345;SDS011;6742;48.036;15.780;2023-09-18T14:37:03;4.95;;;3.70;;
13345;SDS011;6742;48.036;15.780;2023-09-18T14:39:30;5.20;;;3.40;;
13345;SDS011;6742;48.036;15.780;2023-09-18T14:41:57;5.50;;;3.92;;
13345;SDS011;6742;48.036;15.780;2023-09-18T14:44:24;6.50;;;3.63;;
13345;SDS011;6742;48.036;15.780;2023-09-18T14:46:52;6.28;;;3.80;;
13345;SDS011;6742;48.036;15.780;2023-09-18T14:49:20;4.47;;;3.63;;
13345;SDS011;6742;48.036;15.780;2023-09-18T14:51:47;5.70;;;3.63;;
13345;SDS011;6742;48.036;15.780;2023-09-18T14:54:15;6.05;;;3.83;;
13345;SDS011;6742;48.036;15.780;2023-09-18T14:56:42;5.75;;;3.92;;
13345;SDS011;6742;48.036;15.780;2023-09-18T14:59:12;5.40;;;3.90;;
13345;SDS011;6742;48.036;15.780;2023-09-18T15:01:39;5.45;;;3.97;;
13345;SDS011;6742;48.036;15.780;2023-09-18T15:04:08;5.68;;;3.60;;
13345;SDS011;6742;48.036;15.780;2023-09-18T15:06:35;4.45;;;3.72;;